Time;durP1;ratioP1;P1;durP2;ratioP2;P2;SDS_P1;SDS_P2;PMS_P1;PMS_P2;Temp;Humidity;BMP_temperature;BMP_pressure;BME280_temperature;BME280_humidity;BME280_pressure;Samples;Min_cycle;Max_cycle;Signal;HPM_P1;HPM_P2
2024/04/14 07:52:56;;;;;;;5.30;3.70;;;;;;;17.65;99.11;99074.24;104351;1286;648842;-91
2024/04/14 07:55:24;;;;;;;4.50;3.40;;;;;;;17.79;97.36;99075.49;105914;1266;209490;-92
2024/04/14 07:57:52;;;;;;;4.90;3.20;;;;;;;17.86;100.00;99076.63;106716;1257;95184;-91
2024/04/14 08:00:19;;;;;;;6.00;3.50;;;;;;;17.93;98.88;99077.11;106831;1261;107247;-91
2024/04/14 08:02:47;;;;;;;5.10;3.20;;;;;;;17.97;99.15;99076.48;106645;1257;94265;-92
2024/04/14 08:05:15;;;;;;;4.40;3.40;;;;;;;18.00;99.50;99073.20;106596;1257;107662;-93
2024/04/14 08:07:43;;;;;;;5.40;3.70;;;;;;;18.03;99.34;99077.41;106579;1257;96092;-92
2024/04/14 08:10:11;;;;;;;5.10;3.30;;;;;;;18.05;98.23;99072.91;106715;1261;95224;-92
2024/04/14 08:12:39;;;;;;;5.40;3.70;;;;;;;18.06;98.20;99062.00;106588;1261;108568;-91
2024/04/14 08:15:07;;;;;;;5.90;3.50;;;;;;;18.05;99.35;99061.36;106623;1257;95497;-92
2024/04/14 08:17:34;;;;;;;4.10;3.20;;;;;;;18.05;99.06;99060.83;106546;1257;106273;-92
2024/04/14 08:20:03;;;;;;;6.10;3.30;;;;;;;18.05;99.13;99062.50;106589;1262;96588;-92
2024/04/14 08:22:30;;;;;;;8.70;3.30;;;;;;;18.06;98.82;99054.29;106635;1261;96635;-92
2024/04/14 08:24:58;;;;;;;4.30;3.20;;;;;;;18.10;98.51;99056.55;106621;1257;109334;-92
2024/04/14 08:27:26;;;;;;;5.40;3.20;;;;;;;18.17;99.50;99053.81;106642;1261;96595;-92
2024/04/14 08:29:53;;;;;;;5.60;3.30;;;;;;;18.22;98.01;99048.15;106639;1261;106169;-92
2024/04/14 08:32:21;;;;;;;5.40;3.10;;;;;;;18.27;97.47;99045.14;106587;1262;96522;-92
2024/04/14 08:34:49;;;;;;;5.10;3.30;;;;;;;18.33;98.68;99041.13;106652;1257;97060;-91
2024/04/14 08:37:16;;;;;;;4.10;2.80;;;;;;;18.37;98.18;99045.67;106629;1259;107480;-93
2024/04/14 08:39:48;;;;;;;4.30;3.20;;;;;;;18.43;99.05;99046.87;106654;1261;96510;-92
2024/04/14 08:42:18;;;;;;;4.30;3.30;;;;;;;18.51;96.92;99048.16;106535;1262;106481;-93
2024/04/14 08:44:48;;;;;;;6.80;3.60;;;;;;;18.56;97.88;99041.86;106498;1262;96543;-92
2024/04/14 08:47:20;;;;;;;4.40;3.30;;;;;;;18.59;96.62;99043.83;106591;1261;96553;-92
2024/04/14 08:49:50;;;;;;;4.40;3.40;;;;;;;18.66;96.39;99036.52;106659;1257;108854;-93
2024/04/14 08:52:22;;;;;;;6.70;3.60;;;;;;;-39.96;57.92;59419.77;105231;1257;1002359;-93
2024/04/14 08:54:50;;;;;;;5.50;3.40;;;;;;;-128.00;-1.00;-1.00;102804;1262;1094821;-92
2024/04/14 08:57:18;;;;;;;5.40;3.00;;;;;;;-128.00;-1.00;-1.00;102911;1262;1004188;-92
2024/04/14 08:59:50;;;;;;;6.20;3.80;;;;;;;-128.00;-1.00;-1.00;102940;1262;1003889;-93
2024/04/14 09:02:18;;;;;;;4.30;3.20;;;;;;;-128.00;-1.00;-1.00;102986;1261;1097005;-91
2024/04/14 09:04:48;;;;;;;5.80;3.20;;;;;;;-128.00;-1.00;-1.00;102572;1262;1004116;-92
2024/04/14 09:07:15;;;;;;;5.00;3.20;;;;;;;-128.00;-1.00;-1.00;102603;1263;1096490;-92
2024/04/14 09:09:49;;;;;;;3.40;2.70;;;;;;;-128.00;-1.00;-1.00;102613;1265;1004233;-94
2024/04/14 09:12:17;;;;;;;6.20;2.70;;;;;;;-128.00;-1.00;-1.00;102620;1267;1075446;-92
2024/04/14 09:14:48;;;;;;;6.20;2.80;;;;;;;-128.00;-1.00;-1.00;102602;1262;1004931;-94
2024/04/14 09:17:16;;;;;;;3.20;2.40;;;;;;;-128.00;-1.00;-1.00;102643;1262;1085263;-92
2024/04/14 09:19:44;;;;;;;3.60;2.40;;;;;;;-128.00;-1.00;-1.00;102729;1262;1004722;-92
2024/04/14 09:22:36;;;;;;;4.10;2.40;;;;;;;-128.00;-1.00;-1.00;102641;1262;1004237;-93
2024/04/14 09:25:08;;;;;;;4.80;2.70;;;;;;;-128.00;-1.00;-1.00;102563;1267;1074477;-92
2024/04/14 09:27:36;;;;;;;3.70;2.70;;;;;;;-128.00;-1.00;-1.00;102564;1264;1097882;-92
2024/04/14 09:30:38;;;;;;;6.90;2.80;;;;;;;-128.00;-1.00;-1.00;102612;1263;1004140;-94
2024/04/14 09:33:36;;;;;;;4.70;2.40;;;;;;;-128.00;-1.00;-1.00;102565;1267;1096089;-92
2024/04/14 09:36:10;;;;;;;4.10;2.60;;;;;;;-128.00;-1.00;-1.00;102555;1264;1072938;-93
2024/04/14 09:38:40;;;;;;;3.80;2.70;;;;;;;-128.00;-1.00;-1.00;102489;1266;1073358;-92
2024/04/14 09:41:08;;;;;;;3.80;2.50;;;;;;;-128.00;-1.00;-1.00;102580;1262;1004121;-93
2024/04/14 09:43:37;;;;;;;4.10;2.60;;;;;;;-128.00;-1.00;-1.00;102615;1268;1004803;-92
2024/04/14 09:46:05;;;;;;;3.80;2.40;;;;;;;-128.00;-1.00;-1.00;102630;1268;1096353;-92
2024/04/14 09:48:33;;;;;;;5.70;3.00;;;;;;;-128.00;-1.00;-1.00;102539;1267;1005103;-92
2024/04/14 09:51:03;;;;;;;3.60;2.60;;;;;;;-128.00;-1.00;-1.00;102623;1276;1074663;-93
2024/04/14 09:53:35;;;;;;;4.70;2.80;;;;;;;-128.00;-1.00;-1.00;102530;1267;1096901;-92
2024/04/14 09:56:03;;;;;;;3.90;2.50;;;;;;;-128.00;-1.00;-1.00;102513;1265;1083774;-93
2024/04/14 09:58:30;;;;;;;4.90;2.30;;;;;;;-128.00;-1.00;-1.00;102625;1267;1005062;-92
2024/04/14 10:04:19;;;;;;;3.80;2.60;;;;;;;20.21;78.94;98974.48;103616;1283;648672;-74
2024/04/14 10:06:49;;;;;;;;;;;;;;;20.27;78.15;98973.52;105678;1264;95209;-74
2024/04/14 10:09:56;;;;;;;3.60;2.40;;;;;;;20.30;76.30;98968.35;106672;1262;95181;-75
2024/04/14 10:14:50;;;;;;;;;;;;;;;;;;;;;
